createdAt,value
2023-03-26T00:01:33.491Z,99026.75
2023-03-26T00:04:01.676Z,99034.78
2023-03-26T00:06:31.175Z,99036.12
2023-03-26T00:08:58.929Z,99030.53
2023-03-26T00:11:28.313Z,99030.09
2023-03-26T00:13:59.248Z,99028.41
2023-03-26T00:16:29.451Z,99032.37
2023-03-26T00:18:57.776Z,99030.38
2023-03-26T00:21:28.027Z,99029.81
2023-03-26T00:24:04.434Z,99031.53
2023-03-26T00:26:34.113Z,99030.81
2023-03-26T00:29:03.713Z,99022.97
2023-03-26T00:31:31.788Z,99025.41
2023-03-26T00:34:03.205Z,99019.75
2023-03-26T00:36:31.058Z,99028.22
2023-03-26T00:38:58.473Z,99027.50
2023-03-26T00:41:26.994Z,99016.25
2023-03-26T00:43:56.984Z,99024.81
2023-03-26T00:46:25.855Z,99020.59
2023-03-26T00:48:54.021Z,99006.38
2023-03-26T00:51:22.091Z,99013.13
2023-03-26T00:53:50.535Z,99008.50
2023-03-26T00:56:18.632Z,99005.41
2023-03-26T00:58:50.076Z,99001.91
2023-03-26T01:01:29.197Z,98999.94
2023-03-26T01:04:08.321Z,99006.47
2023-03-26T01:06:41.434Z,99005.56
2023-03-26T01:09:21.311Z,99001.94
2023-03-26T01:11:49.661Z,99010.84
2023-03-26T01:14:21.268Z,99015.81
2023-03-26T01:16:52.484Z,99015.34
2023-03-26T01:19:45.278Z,99009.72
2023-03-26T01:22:16.579Z,99015.88
2023-03-26T01:24:48.654Z,99011.69
2023-03-26T01:27:35.982Z,99017.66
2023-03-26T01:30:20.874Z,99025.13
2023-03-26T01:33:19.640Z,99023.53
2023-03-26T01:36:06.180Z,99021.12
2023-03-26T01:38:52.198Z,99024.94
2023-03-26T01:41:45.613Z,99017.75
2023-03-26T01:44:22.074Z,99020.16
2023-03-26T01:46:50.266Z,99014.97
2023-03-26T01:49:18.401Z,99011.63
2023-03-26T01:51:45.987Z,99017.13
2023-03-26T01:54:21.189Z,99012.16
2023-03-26T01:56:51.002Z,99015.56
2023-03-26T01:59:39.194Z,99017.94
2023-03-26T02:02:13.934Z,99023.03
2023-03-26T02:04:53.907Z,99027.84
2023-03-26T02:07:38.179Z,99024.44
2023-03-26T02:10:21.612Z,99028.56
2023-03-26T02:12:49.923Z,99027.00
2023-03-26T02:15:17.529Z,99039.16
2023-03-26T02:17:44.928Z,99027.13
2023-03-26T02:20:14.491Z,99035.16
2023-03-26T02:22:45.714Z,99038.84
2023-03-26T02:25:19.350Z,99037.84
2023-03-26T02:27:49.028Z,99035.44
2023-03-26T02:30:19.854Z,99034.44
2023-03-26T02:32:47.838Z,99038.50
2023-03-26T02:35:15.671Z,99024.19
2023-03-26T02:37:46.944Z,99029.62
2023-03-26T02:40:14.673Z,99021.66
2023-03-26T02:42:42.429Z,99014.16
2023-03-26T02:45:10.382Z,99014.75
2023-03-26T02:47:39.738Z,99018.06
2023-03-26T02:50:09.728Z,99009.72
2023-03-26T02:52:38.998Z,98995.28
2023-03-26T02:55:07.416Z,99000.94
2023-03-26T02:57:35.085Z,98993.47
2023-03-26T03:00:09.114Z,99001.63
2023-03-26T03:02:39.821Z,99000.72
2023-03-26T03:05:08.830Z,98996.56
2023-03-26T03:07:38.005Z,99001.41
2023-03-26T03:10:08.745Z,99002.87
2023-03-26T03:12:38.569Z,98992.69
2023-03-26T03:15:06.378Z,98991.38
2023-03-26T03:17:33.978Z,98994.03
2023-03-26T03:20:01.681Z,98995.75
2023-03-26T03:22:30.108Z,99002.06
2023-03-26T03:24:59.961Z,99005.34
2023-03-26T03:27:27.789Z,99009.44
2023-03-26T03:29:55.965Z,99010.81
2023-03-26T03:32:24.464Z,98999.12
2023-03-26T03:34:52.340Z,99001.50
2023-03-26T03:37:20.337Z,98991.19
2023-03-26T03:39:48.541Z,98991.97
2023-03-26T03:42:16.482Z,99003.00
2023-03-26T03:44:44.443Z,99010.63
2023-03-26T03:47:13.890Z,99007.78
2023-03-26T03:49:41.869Z,99012.25
2023-03-26T03:52:09.348Z,99009.97
2023-03-26T03:54:37.383Z,99012.75
2023-03-26T03:57:05.648Z,99019.75
2023-03-26T03:59:33.679Z,99012.41
2023-03-26T04:02:04.074Z,99021.88
2023-03-26T04:04:32.826Z,99025.25
2023-03-26T04:07:00.715Z,99024.38
2023-03-26T04:09:28.591Z,99026.34
2023-03-26T04:11:56.645Z,99033.00
2023-03-26T04:14:25.375Z,99036.12
2023-03-26T04:16:55.039Z,99028.94
2023-03-26T04:19:23.235Z,99023.13
2023-03-26T04:21:50.652Z,99028.34
2023-03-26T04:24:20.547Z,99023.06
2023-03-26T04:26:51.004Z,99019.66
2023-03-26T04:29:22.089Z,99018.66
2023-03-26T04:31:51.158Z,99024.91
2023-03-26T04:34:24.431Z,99024.63
2023-03-26T04:36:54.683Z,99022.41
2023-03-26T04:39:23.684Z,99028.62
2023-03-26T04:41:55.453Z,99021.66
2023-03-26T04:44:22.848Z,99023.44
2023-03-26T04:46:52.958Z,99041.78
2023-03-26T04:49:21.116Z,99033.06
2023-03-26T04:51:48.584Z,99028.25
2023-03-26T04:54:20.625Z,99032.94
2023-03-26T04:56:58.744Z,99032.37
2023-03-26T04:59:35.142Z,99034.31
2023-03-26T05:02:05.556Z,99027.50
2023-03-26T05:04:36.836Z,99035.31
2023-03-26T05:07:04.692Z,99025.19
2023-03-26T05:09:33.364Z,99033.75
2023-03-26T05:12:03.131Z,99033.72
2023-03-26T05:14:36.234Z,99036.38
2023-03-26T05:17:06.092Z,99036.19
2023-03-26T05:19:33.775Z,99032.37
2023-03-26T05:22:01.290Z,99043.53
2023-03-26T05:24:29.134Z,99037.88
2023-03-26T05:26:57.191Z,99039.97
2023-03-26T05:29:24.842Z,99040.78
2023-03-26T05:31:52.428Z,99037.75
2023-03-26T05:34:20.732Z,99032.31
2023-03-26T05:36:48.634Z,99025.03
2023-03-26T05:39:17.407Z,99028.50
2023-03-26T05:41:46.219Z,99023.94
2023-03-26T05:44:13.598Z,99022.62
2023-03-26T05:46:41.157Z,99022.69
2023-03-26T05:49:10.904Z,99015.31
2023-03-26T05:51:38.558Z,99022.97
2023-03-26T05:54:08.718Z,99022.41
2023-03-26T05:56:38.272Z,99020.09
2023-03-26T05:59:08.885Z,99018.09
2023-03-26T06:01:37.603Z,99022.31
2023-03-26T06:04:06.123Z,99024.72
2023-03-26T06:06:35.897Z,99013.84
2023-03-26T06:09:04.537Z,99011.25
2023-03-26T06:11:32.498Z,99017.81
2023-03-26T06:14:00.694Z,99018.97
2023-03-26T06:16:28.627Z,99016.22
2023-03-26T06:18:57.408Z,99019.91
2023-03-26T06:21:26.412Z,99016.78
2023-03-26T06:23:55.456Z,99015.69
2023-03-26T06:26:26.562Z,99011.56
2023-03-26T06:28:54.223Z,99027.91
2023-03-26T06:31:21.905Z,99021.44
2023-03-26T06:33:49.910Z,99033.97
2023-03-26T06:36:17.443Z,99028.72
2023-03-26T06:38:48.863Z,99031.94
2023-03-26T06:41:17.025Z,99023.50
2023-03-26T06:43:44.897Z,99022.31
2023-03-26T06:46:13.336Z,99019.59
2023-03-26T06:48:42.329Z,99015.38
2023-03-26T06:51:12.682Z,99022.22
2023-03-26T06:53:41.948Z,99024.09
2023-03-26T06:56:09.945Z,99031.94
2023-03-26T06:58:37.970Z,99034.59
2023-03-26T07:01:18.030Z,99031.75
2023-03-26T07:03:59.839Z,99035.59
2023-03-26T07:06:53.887Z,99036.62
2023-03-26T07:09:30.426Z,99034.88
2023-03-26T07:11:59.651Z,99033.69
2023-03-26T07:14:30.443Z,99034.16
2023-03-26T07:17:01.297Z,99039.13
2023-03-26T07:19:29.524Z,99043.72
2023-03-26T07:21:57.569Z,99040.28
2023-03-26T07:24:27.005Z,99035.53
2023-03-26T07:27:07.254Z,99038.13
2023-03-26T07:29:45.721Z,99037.25
2023-03-26T07:32:24.150Z,99032.41
2023-03-26T07:35:03.701Z,99035.44
2023-03-26T07:37:40.982Z,99035.56
2023-03-26T07:40:48.663Z,99039.72
2023-03-26T07:43:46.289Z,99032.44
2023-03-26T07:46:15.309Z,99036.22
2023-03-26T07:48:49.840Z,99037.44
2023-03-26T07:51:18.753Z,99037.47
2023-03-26T07:53:46.923Z,99036.94
2023-03-26T07:56:17.322Z,99043.72
2023-03-26T07:59:18.088Z,99039.66
2023-03-26T08:02:19.604Z,99035.75
2023-03-26T08:04:53.487Z,99034.41
2023-03-26T08:07:25.102Z,99034.63
2023-03-26T08:10:17.673Z,99030.53
2023-03-26T08:13:13.120Z,99036.50
2023-03-26T08:15:57.718Z,99026.75
2023-03-26T08:18:44.614Z,99037.84
2023-03-26T08:21:17.368Z,99028.88
2023-03-26T08:24:12.539Z,99026.50
2023-03-26T08:26:46.070Z,99021.12
2023-03-26T08:29:21.606Z,99023.94
2023-03-26T08:31:49.862Z,99013.38
2023-03-26T08:34:17.295Z,99016.41
2023-03-26T08:36:44.727Z,99010.94
2023-03-26T08:39:13.142Z,99012.63
2023-03-26T08:42:02.073Z,99014.38
2023-03-26T08:44:58.258Z,99007.63
2023-03-26T08:47:59.256Z,99019.09
2023-03-26T08:50:51.677Z,99010.22
2023-03-26T08:53:39.688Z,99003.66
2023-03-26T08:56:26.544Z,99003.88
2023-03-26T08:59:25.656Z,99004.97
2023-03-26T09:02:31.366Z,99008.38
2023-03-26T09:05:27.239Z,99004.81
2023-03-26T09:08:18.895Z,99003.50
2023-03-26T09:11:30.504Z,99001.78
2023-03-26T09:14:28.002Z,98999.16
2023-03-26T09:17:13.467Z,98990.25
2023-03-26T09:19:43.842Z,98993.09
2023-03-26T09:22:56.285Z,98994.03
2023-03-26T09:25:48.971Z,98996.09
2023-03-26T09:28:32.529Z,98990.34
2023-03-26T09:31:33.555Z,98985.97
2023-03-26T09:34:32.367Z,98986.03
2023-03-26T09:37:26.845Z,98977.28
2023-03-26T09:40:12.873Z,98970.84
2023-03-26T09:42:52.269Z,98969.16
2023-03-26T09:45:36.001Z,98964.09
2023-03-26T09:48:32.309Z,98961.56
2023-03-26T09:51:38.411Z,98966.56
2023-03-26T09:54:33.938Z,98957.34
2023-03-26T09:57:21.202Z,98943.28
2023-03-26T10:00:04.692Z,98928.13
2023-03-26T10:02:47.467Z,98917.94
2023-03-26T10:05:26.931Z,98914.34
2023-03-26T10:08:10.647Z,98918.25
2023-03-26T10:10:43.767Z,98922.41
2023-03-26T10:13:15.025Z,98941.06
2023-03-26T10:15:48.700Z,98941.72
2023-03-26T10:18:32.188Z,98932.31
2023-03-26T10:21:26.157Z,98944.25
2023-03-26T10:24:04.530Z,98941.81
2023-03-26T10:27:10.269Z,98929.94
2023-03-26T10:29:44.382Z,98925.38
2023-03-26T10:32:44.339Z,98911.66
2023-03-26T10:35:19.968Z,98909.78
2023-03-26T10:37:58.915Z,98905.09
2023-03-26T10:41:04.693Z,98892.84
2023-03-26T10:44:05.632Z,98893.75
2023-03-26T10:46:47.871Z,98874.94
2023-03-26T10:49:34.015Z,98876.56
2023-03-26T10:52:06.983Z,98879.44
2023-03-26T10:54:58.164Z,98874.88
2023-03-26T10:57:38.069Z,98872.87
2023-03-26T11:00:15.429Z,98863.47
2023-03-26T11:03:11.956Z,98866.94
2023-03-26T11:06:07.485Z,98852.88
2023-03-26T11:08:48.523Z,98851.00
2023-03-26T11:11:38.757Z,98850.00
2023-03-26T11:14:35.195Z,98842.16
2023-03-26T11:17:43.834Z,98824.28
2023-03-26T11:20:17.493Z,98824.41
2023-03-26T11:23:07.503Z,98824.50
2023-03-26T11:25:44.016Z,98812.97
2023-03-26T11:29:03.768Z,98822.41
2023-03-26T11:31:49.190Z,98810.69
2023-03-26T11:34:19.352Z,98814.41
2023-03-26T11:36:50.605Z,98803.19
2023-03-26T11:39:24.638Z,98798.91
2023-03-26T11:41:59.342Z,98781.44
2023-03-26T11:44:33.034Z,98770.97
2023-03-26T11:47:05.009Z,98769.19
2023-03-26T11:49:33.327Z,98766.00
2023-03-26T11:52:02.699Z,98756.75
2023-03-26T11:54:30.248Z,98752.91
2023-03-26T11:57:06.995Z,98749.47
2023-03-26T11:59:49.028Z,98732.41
2023-03-26T12:02:35.717Z,98732.97
2023-03-26T12:05:21.947Z,98729.13
2023-03-26T12:08:00.228Z,98720.34
2023-03-26T12:10:27.887Z,98719.16
2023-03-26T12:12:58.326Z,98710.56
2023-03-26T12:15:26.684Z,98704.03
2023-03-26T12:17:58.041Z,98700.00
2023-03-26T12:20:25.485Z,98692.03
2023-03-26T12:23:00.948Z,98686.00
2023-03-26T12:25:30.842Z,98680.88
2023-03-26T12:28:04.848Z,98677.63
2023-03-26T12:30:34.574Z,98675.91
2023-03-26T12:33:26.178Z,98670.47
2023-03-26T12:35:55.074Z,98658.59
2023-03-26T12:38:33.910Z,98663.59
2023-03-26T12:44:46.649Z,98644.22
2023-03-26T12:44:46.872Z,98645.47
2023-03-26T12:47:56.060Z,98638.72
2023-03-26T12:49:35.510Z,98650.34
2023-03-26T12:52:25.253Z,98634.13
2023-03-26T12:55:02.451Z,98645.88
2023-03-26T12:57:59.891Z,98635.75
2023-03-26T13:01:23.659Z,98631.25
2023-03-26T13:04:05.439Z,98622.66
2023-03-26T13:06:59.057Z,98618.47
2023-03-26T13:09:38.365Z,98609.22
2023-03-26T13:12:27.446Z,98616.94
2023-03-26T13:15:09.636Z,98605.34
2023-03-26T13:17:45.302Z,98597.84
2023-03-26T13:20:18.831Z,98588.91
2023-03-26T13:23:08.317Z,98590.72
2023-03-26T13:25:53.160Z,98585.63
2023-03-26T13:28:39.444Z,98583.25
2023-03-26T13:31:20.625Z,98579.97
2023-03-26T13:33:58.200Z,98575.56
2023-03-26T13:36:58.585Z,98569.38
2023-03-26T13:39:49.952Z,98568.53
2023-03-26T13:42:42.263Z,98560.16
2023-03-26T13:45:28.404Z,98558.75
2023-03-26T13:47:57.489Z,98554.53
2023-03-26T13:50:34.340Z,98553.34
2023-03-26T13:53:13.438Z,98544.09
2023-03-26T13:55:44.042Z,98547.66
2023-03-26T13:58:24.429Z,98532.16
2023-03-26T14:01:12.632Z,98531.84
2023-03-26T14:03:55.629Z,98529.41
2023-03-26T14:06:22.994Z,98522.47
2023-03-26T14:09:02.695Z,98512.69
2023-03-26T14:11:56.897Z,98509.25
2023-03-26T14:14:48.476Z,98515.63
2023-03-26T14:17:39.296Z,98511.75
2023-03-26T14:20:21.895Z,98504.06
2023-03-26T14:23:24.814Z,98514.69
2023-03-26T14:26:22.060Z,98502.34
2023-03-26T14:28:58.305Z,98488.62
2023-03-26T14:31:48.605Z,98494.50
2023-03-26T14:34:30.035Z,98496.00
2023-03-26T14:37:17.870Z,98482.41
2023-03-26T14:40:40.724Z,98485.59
2023-03-26T14:43:30.021Z,98487.03
2023-03-26T14:46:20.528Z,98480.84
2023-03-26T14:48:57.244Z,98479.56
2023-03-26T14:51:34.386Z,98474.41
2023-03-26T14:54:12.068Z,98463.63
2023-03-26T14:56:51.298Z,98451.31
2023-03-26T14:59:45.045Z,98446.41
2023-03-26T15:02:37.670Z,98443.19
2023-03-26T15:05:42.315Z,98441.75
2023-03-26T15:08:34.356Z,98431.16
2023-03-26T15:11:17.353Z,98424.44
2023-03-26T15:13:59.568Z,98427.12
2023-03-26T15:16:52.462Z,98432.94
2023-03-26T15:19:38.907Z,98414.31
2023-03-26T15:22:12.590Z,98415.06
2023-03-26T15:25:01.678Z,98420.72
2023-03-26T15:27:47.502Z,98407.87
2023-03-26T15:30:50.280Z,98398.97
2023-03-26T15:33:41.840Z,98402.75
2023-03-26T15:36:41.153Z,98404.94
2023-03-26T15:39:32.041Z,98395.69
2023-03-26T15:42:00.042Z,98400.22
2023-03-26T15:45:16.029Z,98395.59
2023-03-26T15:47:54.304Z,98400.91
2023-03-26T15:50:24.910Z,98397.44
2023-03-26T15:53:18.636Z,98399.66
2023-03-26T15:55:55.086Z,98391.16
2023-03-26T15:58:31.965Z,98385.69
2023-03-26T16:01:29.356Z,98387.25
2023-03-26T16:04:00.631Z,98374.94
2023-03-26T16:06:51.985Z,98369.63
2023-03-26T16:09:46.278Z,98361.47
2023-03-26T16:12:16.728Z,98359.22
2023-03-26T16:15:13.857Z,98347.69
2023-03-26T16:18:15.492Z,98348.50
2023-03-26T16:20:54.051Z,98338.28
2023-03-26T16:23:27.263Z,98328.34
2023-03-26T16:26:11.370Z,98323.91
2023-03-26T16:28:44.983Z,98322.19
2023-03-26T16:31:36.820Z,98317.47
2023-03-26T16:34:03.382Z,98313.53
2023-03-26T16:36:45.218Z,98312.25
2023-03-26T16:39:18.107Z,98305.75
2023-03-26T16:41:49.954Z,98318.31
2023-03-26T16:44:36.062Z,98323.19
2023-03-26T16:47:32.405Z,98315.72
2023-03-26T16:50:10.797Z,98315.97
2023-03-26T16:52:50.568Z,98325.75
2023-03-26T16:55:21.581Z,98320.28
2023-03-26T16:58:29.918Z,98319.56
2023-03-26T17:01:21.393Z,98319.03
2023-03-26T17:03:49.229Z,98317.28
2023-03-26T17:07:01.844Z,98323.34
2023-03-26T17:10:00.580Z,98319.63
2023-03-26T17:12:34.589Z,98318.47
2023-03-26T17:15:20.926Z,98317.72
2023-03-26T17:18:09.389Z,98315.03
2023-03-26T17:20:42.493Z,98315.53
2023-03-26T17:23:32.054Z,98313.97
2023-03-26T17:26:18.268Z,98316.22
2023-03-26T17:28:55.748Z,98315.09
2023-03-26T17:31:32.639Z,98313.78
2023-03-26T17:34:48.400Z,98304.66
2023-03-26T17:37:16.332Z,98309.16
2023-03-26T17:39:43.774Z,98307.09
2023-03-26T17:42:21.269Z,98309.69
2023-03-26T17:44:55.730Z,98304.88
2023-03-26T17:47:26.360Z,98313.94
2023-03-26T17:50:00.088Z,98316.59
2023-03-26T17:52:49.150Z,98307.66
2023-03-26T17:55:23.463Z,98313.75
2023-03-26T17:57:53.733Z,98306.75
2023-03-26T18:00:23.926Z,98308.50
2023-03-26T18:03:02.383Z,98304.97
2023-03-26T18:05:30.931Z,98312.50
2023-03-26T18:08:15.205Z,98303.38
2023-03-26T18:10:56.342Z,98305.47
2023-03-26T18:14:02.012Z,98303.00
2023-03-26T18:16:38.008Z,98304.13
2023-03-26T18:19:19.121Z,98308.53
2023-03-26T18:21:50.425Z,98303.91
2023-03-26T18:24:31.407Z,98306.84
2023-03-26T18:27:03.457Z,98293.00
2023-03-26T18:29:35.750Z,98302.59
2023-03-26T18:32:09.424Z,98292.81
2023-03-26T18:34:40.907Z,98295.00
2023-03-26T18:37:11.398Z,98284.19
2023-03-26T18:39:39.578Z,98289.06
2023-03-26T18:42:07.137Z,98274.88
2023-03-26T18:44:39.123Z,98283.19
2023-03-26T18:47:07.334Z,98272.69
2023-03-26T18:49:36.598Z,98272.13
2023-03-26T18:52:04.450Z,98273.78
2023-03-26T18:54:35.487Z,98268.06
2023-03-26T18:57:15.219Z,98264.50
2023-03-26T18:59:45.540Z,98254.31
2023-03-26T19:02:13.953Z,98255.22
2023-03-26T19:04:46.213Z,98249.22
2023-03-26T19:07:17.191Z,98252.75
2023-03-26T19:09:45.986Z,98241.28
2023-03-26T19:12:28.024Z,98241.66
2023-03-26T19:14:56.949Z,98233.16
2023-03-26T19:17:28.217Z,98232.44
2023-03-26T19:19:57.434Z,98232.06
2023-03-26T19:22:25.661Z,98226.69
2023-03-26T19:24:57.738Z,98224.03
2023-03-26T19:27:25.441Z,98215.06
2023-03-26T19:29:53.206Z,98212.13
2023-03-26T19:32:28.892Z,98210.00
2023-03-26T19:34:59.026Z,98208.72
2023-03-26T19:37:30.083Z,98203.59
2023-03-26T19:40:07.190Z,98191.59
2023-03-26T19:42:43.295Z,98190.78
2023-03-26T19:45:18.594Z,98180.00
2023-03-26T19:47:49.969Z,98177.38
2023-03-26T19:50:25.492Z,98171.41
2023-03-26T19:53:18.965Z,98167.88
2023-03-26T19:55:58.983Z,98169.31
2023-03-26T19:58:27.391Z,98156.28
2023-03-26T20:00:58.584Z,98157.41
2023-03-26T20:03:29.892Z,98146.59
2023-03-26T20:05:57.502Z,98137.50
2023-03-26T20:08:26.984Z,98131.13
2023-03-26T20:10:57.064Z,98127.88
2023-03-26T20:13:24.978Z,98123.28
2023-03-26T20:16:06.107Z,98119.81
2023-03-26T20:18:34.968Z,98111.41
2023-03-26T20:21:05.534Z,98095.87
2023-03-26T20:23:33.067Z,98104.41
2023-03-26T20:26:00.779Z,98092.44
2023-03-26T20:28:28.398Z,98097.63
2023-03-26T20:30:56.344Z,98079.81
2023-03-26T20:33:26.636Z,98089.75
2023-03-26T20:35:55.940Z,98084.91
2023-03-26T20:38:39.048Z,98078.34
2023-03-26T20:41:13.460Z,98076.56
2023-03-26T20:43:42.440Z,98082.31
2023-03-26T20:46:15.897Z,98084.00
2023-03-26T20:48:43.842Z,98084.06
2023-03-26T20:51:15.600Z,98073.37
2023-03-26T20:53:44.492Z,98068.41
2023-03-26T20:56:17.898Z,98063.84
2023-03-26T20:58:47.847Z,98066.09
2023-03-26T21:01:17.532Z,98062.31
2023-03-26T21:03:46.160Z,98064.59
2023-03-26T21:06:13.970Z,98053.97
2023-03-26T21:08:43.028Z,98066.47
2023-03-26T21:11:26.552Z,98062.09
2023-03-26T21:14:33.449Z,98069.25
2023-03-26T21:17:01.818Z,98092.75
2023-03-26T21:19:29.742Z,98095.97
2023-03-26T21:22:04.769Z,98103.56
2023-03-26T21:24:51.171Z,98105.06
2023-03-26T21:27:46.077Z,98102.59
2023-03-26T21:30:16.338Z,98107.44
2023-03-26T21:32:45.522Z,98101.81
2023-03-26T21:35:14.932Z,98099.78
2023-03-26T21:37:44.407Z,98095.09
2023-03-26T21:40:16.726Z,98103.37
2023-03-26T21:42:46.981Z,98098.69
2023-03-26T21:45:14.855Z,98095.47
2023-03-26T21:47:43.102Z,98106.31
2023-03-26T21:50:13.869Z,98106.94
2023-03-26T21:52:47.249Z,98104.03
2023-03-26T21:55:22.454Z,98101.19
2023-03-26T21:58:13.351Z,98100.88
2023-03-26T22:00:56.956Z,98109.34
2023-03-26T22:03:30.387Z,98106.28
2023-03-26T22:06:03.599Z,98101.31
2023-03-26T22:08:36.816Z,98109.41
2023-03-26T22:11:05.707Z,98112.56
2023-03-26T22:13:35.745Z,98118.19
2023-03-26T22:16:03.209Z,98111.13
2023-03-26T22:18:30.893Z,98114.34
2023-03-26T22:20:59.961Z,98104.47
2023-03-26T22:23:28.074Z,98108.91
2023-03-26T22:25:56.053Z,98115.12
2023-03-26T22:28:23.734Z,98108.84
2023-03-26T22:30:52.280Z,98101.31
2023-03-26T22:33:20.120Z,98097.69
2023-03-26T22:35:48.010Z,98088.66
2023-03-26T22:38:17.112Z,98082.47
2023-03-26T22:40:44.555Z,98080.37
2023-03-26T22:43:12.277Z,98069.91
2023-03-26T22:45:39.721Z,98066.53
2023-03-26T22:48:07.422Z,98063.00
2023-03-26T22:50:35.174Z,98054.31
2023-03-26T22:53:02.557Z,98047.72
2023-03-26T22:55:30.212Z,98045.84
2023-03-26T22:57:57.991Z,98042.53
2023-03-26T23:00:26.469Z,98034.41
2023-03-26T23:02:55.998Z,98039.63
2023-03-26T23:05:23.841Z,98032.47
2023-03-26T23:07:52.334Z,98034.91
2023-03-26T23:10:21.600Z,98029.91
2023-03-26T23:12:49.685Z,98028.28
2023-03-26T23:15:17.175Z,98030.66
2023-03-26T23:17:44.583Z,98026.25
2023-03-26T23:20:22.511Z,98011.03
2023-03-26T23:22:50.685Z,98014.38
2023-03-26T23:25:18.237Z,98001.53
2023-03-26T23:27:45.913Z,97996.97
2023-03-26T23:30:13.630Z,97993.00
2023-03-26T23:32:41.462Z,97994.25
2023-03-26T23:35:09.626Z,97981.53
2023-03-26T23:37:38.849Z,97985.09
2023-03-26T23:40:10.128Z,97982.31
2023-03-26T23:42:38.049Z,97981.56
2023-03-26T23:45:06.224Z,97972.25
2023-03-26T23:47:34.965Z,97968.16
2023-03-26T23:50:04.407Z,97960.66
2023-03-26T23:52:31.880Z,97945.13
2023-03-26T23:55:02.325Z,97947.16
2023-03-26T23:57:30.609Z,97947.97
2023-03-26T23:59:58.456Z,97938.22
